Time;durP1;ratioP1;P1;durP2;ratioP2;P2;SDS_P1;SDS_P2;PMS_P1;PMS_P2;Temp;Humidity;BMP_temperature;BMP_pressure;BME280_temperature;BME280_humidity;BME280_pressure;Samples;Min_cycle;Max_cycle;Signal;HPM_P1;HPM_P2
2021/03/28 00:01:05;;;;;;;3.15;2.50;;;8.50;79.30;;;;;;5097898;27;20183;-53
2021/03/28 00:03:58;;;;;;;3.70;2.55;;;8.60;79.50;;;;;;5099630;27;20183;-52
2021/03/28 00:06:29;;;;;;;6.97;3.10;;;8.30;79.40;;;;;;5097059;28;20209;-53
2021/03/28 00:09:18;;;;;;;5.30;3.40;;;8.30;79.60;;;;;;5098272;27;20251;-52
2021/03/28 00:12:18;;;;;;;5.18;2.40;;;8.40;80.00;;;;;;5106963;27;20437;-51
2021/03/28 00:15:02;;;;;;;5.35;2.20;;;8.10;80.00;;;;;;5094239;28;20180;-50
2021/03/28 00:17:41;;;;;;;4.05;2.50;;;8.10;80.60;;;;;;5119258;27;20196;-51
2021/03/28 00:20:11;;;;;;;3.92;2.30;;;8.30;80.90;;;;;;5103226;27;20270;-51
2021/03/28 00:22:48;;;;;;;7.68;3.03;;;8.30;82.30;;;;;;5101800;28;20225;-51
2021/03/28 00:25:35;;;;;;;3.72;2.30;;;8.30;82.60;;;;;;5101739;27;20751;-51
2021/03/28 00:28:08;;;;;;;3.85;2.75;;;7.80;83.40;;;;;;5093901;28;20208;-51
2021/03/28 00:30:39;;;;;;;4.57;2.45;;;8.00;83.50;;;;;;5093997;28;20186;-51
2021/03/28 00:33:13;;;;;;;4.20;2.60;;;7.70;84.00;;;;;;5099784;27;20564;-51
2021/03/28 00:35:57;;;;;;;6.30;2.53;;;7.80;84.50;;;;;;5093841;28;20182;-51
2021/03/28 00:38:37;;;;;;;4.93;2.80;;;7.70;84.80;;;;;;5103834;27;20199;-52
2021/03/28 00:41:15;;;;;;;3.45;2.35;;;7.60;84.70;;;;;;5111206;27;20179;-51
2021/03/28 00:43:47;;;;;;;4.18;2.20;;;7.90;85.10;;;;;;5113039;27;20191;-52
2021/03/28 00:46:42;;;;;;;4.78;2.13;;;7.70;85.10;;;;;;5113884;27;20206;-51
2021/03/28 00:49:18;;;;;;;3.15;2.20;;;7.60;84.80;;;;;;5113978;27;20230;-51
2021/03/28 00:51:47;;;;;;;3.97;2.47;;;7.80;85.70;;;;;;5128709;27;20199;-51
2021/03/28 00:54:18;;;;;;;3.97;2.25;;;7.70;85.90;;;;;;5105462;27;20179;-55
2021/03/28 00:56:57;;;;;;;2.33;2.13;;;7.60;86.00;;;;;;5111257;27;20193;-51
2021/03/28 00:59:36;;;;;;;3.75;2.10;;;7.40;86.10;;;;;;5096369;27;20267;-51
2021/03/28 01:02:11;;;;;;;4.18;2.03;;;7.30;86.20;;;;;;5123178;27;20652;-51
2021/03/28 01:04:39;;;;;;;5.85;2.78;;;7.40;86.50;;;;;;5093553;27;20230;-51
2021/03/28 01:07:14;;;;;;;4.25;2.35;;;7.30;86.40;;;;;;5092713;28;20171;-50
2021/03/28 01:10:17;;;;;;;3.15;1.95;;;7.50;87.30;;;;;;5097245;28;20227;-50
2021/03/28 01:13:20;;;;;;;5.28;1.95;;;7.40;87.70;;;;;;5095900;28;20177;-51
2021/03/28 01:15:49;;;;;;;4.93;2.00;;;7.20;87.60;;;;;;5105064;27;20782;-51
2021/03/28 01:18:24;;;;;;;3.53;1.80;;;7.10;87.50;;;;;;5100381;27;20696;-51
2021/03/28 01:21:16;;;;;;;3.20;1.90;;;7.30;88.10;;;;;;5107851;27;20189;-51
2021/03/28 01:23:54;;;;;;;3.95;1.90;;;7.10;88.70;;;;;;5101509;27;20187;-51
2021/03/28 01:26:41;;;;;;;2.40;1.77;;;7.10;88.60;;;;;;5100347;27;20179;-51
2021/03/28 01:29:36;;;;;;;4.43;2.10;;;7.20;89.00;;;;;;5094689;27;20612;-51
2021/03/28 01:32:08;;;;;;;1.75;1.63;;;7.10;89.00;;;;;;5112573;27;20232;-52
2021/03/28 01:34:54;;;;;;;2.72;1.85;;;7.10;88.90;;;;;;5102717;27;20232;-51
2021/03/28 01:37:57;;;;;;;5.03;2.65;;;7.30;89.40;;;;;;5097274;28;20511;-51
2021/03/28 01:40:27;;;;;;;3.17;1.73;;;7.10;89.50;;;;;;5051888;27;20201;-51
2021/03/28 01:43:25;;;;;;;3.35;2.10;;;7.10;89.10;;;;;;5101073;27;20192;-52
2021/03/28 01:45:51;;;;;;;5.60;2.60;;;6.50;89.90;;;;;;5087901;28;20222;-52
2021/03/28 01:48:35;;;;;;;7.60;2.27;;;6.70;90.30;;;;;;5098106;27;20691;-52
2021/03/28 01:51:25;;;;;;;2.72;2.20;;;6.80;90.40;;;;;;5125376;27;20235;-52
2021/03/28 01:54:18;;;;;;;2.97;1.98;;;6.70;90.70;;;;;;5104514;27;20207;-53
2021/03/28 01:57:12;;;;;;;4.60;2.20;;;6.80;90.50;;;;;;5101087;28;20228;-52
2021/03/28 02:00:03;;;;;;;3.83;2.10;;;6.80;90.70;;;;;;5104213;28;20736;-52
2021/03/28 02:03:00;;;;;;;3.15;1.92;;;6.50;90.50;;;;;;5108176;27;20640;-52
2021/03/28 02:06:03;;;;;;;4.20;2.35;;;6.60;91.10;;;;;;5105633;27;20207;-52
2021/03/28 02:08:46;;;;;;;5.20;3.17;;;6.60;91.10;;;;;;5100210;27;20213;-52
2021/03/28 02:11:44;;;;;;;3.00;2.13;;;6.70;91.30;;;;;;5097181;27;20254;-52
2021/03/28 02:14:31;;;;;;;6.10;2.13;;;6.40;91.70;;;;;;5110709;27;20186;-51
2021/03/28 02:17:22;;;;;;;3.22;2.05;;;6.10;92.20;;;;;;5092320;28;20690;-51
2021/03/28 02:20:14;;;;;;;9.63;2.65;;;6.10;92.70;;;;;;5091217;28;20484;-51
2021/03/28 02:22:48;;;;;;;2.47;1.80;;;6.20;93.10;;;;;;5127777;27;20654;-52
2021/03/28 02:25:44;;;;;;;4.80;2.58;;;6.10;93.60;;;;;;5111406;27;20246;-52
2021/03/28 02:28:27;;;;;;;3.83;1.90;;;6.00;93.50;;;;;;5087663;28;20313;-53
2021/03/28 02:31:22;;;;;;;5.20;2.22;;;6.10;93.60;;;;;;5100037;27;20555;-53
2021/03/28 02:33:59;;;;;;;2.45;2.08;;;6.10;93.60;;;;;;5093842;28;20201;-52
2021/03/28 02:36:24;;;;;;;3.25;1.90;;;5.80;93.50;;;;;;5099949;28;20182;-53
2021/03/28 02:39:19;;;;;;;2.77;1.50;;;5.70;93.80;;;;;;5099463;27;20253;-52
2021/03/28 02:42:02;;;;;;;5.90;2.42;;;5.80;93.60;;;;;;5097390;28;20176;-53
2021/03/28 02:44:38;;;;;;;3.60;2.30;;;6.00;93.70;;;;;;5105832;28;20740;-53
2021/03/28 02:47:04;;;;;;;3.10;1.95;;;5.90;93.70;;;;;;5098193;27;20258;-53
2021/03/28 02:50:01;;;;;;;6.47;3.13;;;6.00;94.00;;;;;;5099577;28;20195;-52
2021/03/28 02:52:54;;;;;;;4.85;2.00;;;5.90;94.00;;;;;;5095775;27;20252;-52
2021/03/28 02:55:41;;;;;;;2.75;2.00;;;6.10;94.40;;;;;;5115571;27;20233;-52
2021/03/28 02:58:28;;;;;;;5.82;2.45;;;6.00;94.20;;;;;;5108129;28;20209;-52
2021/03/28 03:01:28;;;;;;;4.05;1.90;;;6.00;94.30;;;;;;5098407;28;20201;-53
2021/03/28 03:04:12;;;;;;;2.25;1.60;;;5.80;94.30;;;;;;5101770;28;20185;-52
2021/03/28 03:06:56;;;;;;;5.53;2.70;;;6.00;94.50;;;;;;5091339;28;20178;-53
2021/03/28 03:09:38;;;;;;;5.55;1.92;;;5.70;94.20;;;;;;5097563;28;20285;-53
2021/03/28 03:12:22;;;;;;;2.00;1.40;;;5.80;94.40;;;;;;5102418;28;20187;-53
2021/03/28 03:15:03;;;;;;;4.60;1.85;;;5.90;94.50;;;;;;5101718;28;20185;-53
2021/03/28 03:17:37;;;;;;;3.50;2.28;;;6.10;94.40;;;;;;5094992;28;20310;-53
2021/03/28 03:20:35;;;;;;;4.10;2.40;;;5.80;94.40;;;;;;5099125;28;20177;-52
2021/03/28 03:23:34;;;;;;;1.65;1.55;;;5.90;94.70;;;;;;5096917;28;20194;-52
2021/03/28 03:26:03;;;;;;;3.05;2.05;;;5.70;95.00;;;;;;5108214;28;20262;-52
2021/03/28 03:28:38;;;;;;;2.97;2.00;;;5.70;95.00;;;;;;5103178;28;20291;-52
2021/03/28 03:31:07;;;;;;;2.25;2.05;;;5.60;95.00;;;;;;5099318;27;20216;-53
2021/03/28 03:33:55;;;;;;;4.38;1.85;;;5.70;95.00;;;;;;5115197;27;20207;-52
2021/03/28 03:36:46;;;;;;;5.53;1.67;;;5.80;95.20;;;;;;5112469;27;20181;-52
2021/03/28 03:39:19;;;;;;;4.28;2.70;;;5.80;95.00;;;;;;5108703;27;20238;-52
2021/03/28 03:42:00;;;;;;;3.30;1.83;;;5.80;95.10;;;;;;5098608;27;20215;-50
2021/03/28 03:45:16;;;;;;;2.88;2.05;;;5.70;95.20;;;;;;5094680;28;20210;-53
2021/03/28 03:48:11;;;;;;;4.25;2.10;;;5.70;95.30;;;;;;5073980;27;20680;-53
2021/03/28 03:51:08;;;;;;;5.38;1.90;;;5.80;95.50;;;;;;5093840;27;20234;-53
2021/03/28 03:53:42;;;;;;;2.47;1.67;;;5.50;95.50;;;;;;5112389;27;20188;-50
2021/03/28 03:56:16;;;;;;;2.15;1.58;;;5.80;95.50;;;;;;5109184;28;20761;-51
2021/03/28 03:59:11;;;;;;;3.75;1.92;;;5.60;95.50;;;;;;5104478;27;20209;-53
2021/03/28 04:02:00;;;;;;;3.97;2.10;;;5.60;95.60;;;;;;5096091;27;20189;-52
2021/03/28 04:04:44;;;;;;;2.17;1.95;;;5.50;95.40;;;;;;5112896;27;20261;-52
2021/03/28 04:07:15;;;;;;;5.82;2.50;;;5.60;95.40;;;;;;5106006;27;20186;-53
2021/03/28 04:09:59;;;;;;;3.85;1.40;;;5.40;95.30;;;;;;5107501;27;20262;-53
2021/03/28 04:12:55;;;;;;;2.00;1.80;;;5.90;95.60;;;;;;5097310;27;20282;-53
2021/03/28 04:15:29;;;;;;;3.67;2.40;;;5.80;95.50;;;;;;5106384;27;20662;-52
2021/03/28 04:18:04;;;;;;;4.95;1.77;;;5.80;95.60;;;;;;5106651;27;20287;-52
2021/03/28 04:20:54;;;;;;;2.60;1.80;;;5.70;95.70;;;;;;5120784;27;20193;-53
2021/03/28 04:23:22;;;;;;;4.50;1.98;;;5.70;95.50;;;;;;5101471;27;20548;-53
2021/03/28 04:26:14;;;;;;;5.18;2.25;;;5.50;95.60;;;;;;5101277;27;20734;-53
2021/03/28 04:28:55;;;;;;;4.22;2.15;;;5.70;95.50;;;;;;5096195;28;20233;-53
2021/03/28 04:31:51;;;;;;;3.22;1.73;;;5.70;95.50;;;;;;5120416;27;20203;-53
2021/03/28 04:34:26;;;;;;;3.25;1.70;;;5.50;95.40;;;;;;5112914;27;20189;-53
2021/03/28 04:37:09;;;;;;;3.80;2.28;;;5.80;95.40;;;;;;5116679;27;20550;-53
2021/03/28 04:40:14;;;;;;;3.17;2.17;;;5.90;95.60;;;;;;5110442;27;20217;-53
2021/03/28 04:42:48;;;;;;;2.78;1.83;;;5.50;95.40;;;;;;5097744;28;20190;-52
2021/03/28 04:45:39;;;;;;;3.10;1.95;;;5.70;95.60;;;;;;5093396;28;20215;-53
2021/03/28 04:48:13;;;;;;;2.25;1.67;;;5.80;95.90;;;;;;5099398;27;20570;-52
2021/03/28 04:51:12;;;;;;;5.50;2.03;;;5.60;95.80;;;;;;5102670;27;20182;-53
2021/03/28 04:54:06;;;;;;;4.05;2.40;;;5.70;96.00;;;;;;5106229;27;20182;-52
2021/03/28 04:57:06;;;;;;;5.45;2.30;;;5.50;95.90;;;;;;5104209;27;20187;-52
2021/03/28 04:59:35;;;;;;;2.30;1.95;;;5.50;96.20;;;;;;5111445;27;20293;-53
2021/03/28 05:02:38;;;;;;;4.43;1.90;;;5.40;96.40;;;;;;5101617;27;20294;-52
2021/03/28 05:05:22;;;;;;;3.78;2.15;;;5.40;96.60;;;;;;5106341;27;20212;-53
2021/03/28 05:08:06;;;;;;;3.67;2.00;;;5.30;96.50;;;;;;5099239;28;20277;-52
2021/03/28 05:10:53;;;;;;;3.42;1.80;;;5.30;96.50;;;;;;5098724;27;20170;-52
2021/03/28 05:13:38;;;;;;;3.20;2.03;;;5.50;96.40;;;;;;5101105;28;20335;-52
2021/03/28 05:16:31;;;;;;;6.30;2.10;;;5.40;96.30;;;;;;5098470;27;20193;-52
2021/03/28 05:19:34;;;;;;;1.65;1.50;;;5.60;96.50;;;;;;5102588;27;20504;-52
2021/03/28 05:22:19;;;;;;;2.15;1.92;;;5.50;96.30;;;;;;5092655;28;20188;-53
2021/03/28 05:25:10;;;;;;;2.03;1.90;;;5.50;96.40;;;;;;5111536;27;20317;-50
2021/03/28 05:27:54;;;;;;;2.42;1.55;;;5.80;96.40;;;;;;5077090;28;20192;-52
2021/03/28 05:30:52;;;;;;;3.38;1.88;;;5.60;96.30;;;;;;5092654;28;20646;-51
2021/03/28 05:33:56;;;;;;;8.02;1.92;;;5.30;95.90;;;;;;5084707;27;20604;-52
2021/03/28 05:36:49;;;;;;;3.58;2.05;;;5.50;96.30;;;;;;5097661;27;20170;-53
2021/03/28 05:39:53;;;;;;;3.55;2.08;;;5.70;96.40;;;;;;5120946;27;20206;-53
2021/03/28 05:42:37;;;;;;;2.97;1.67;;;5.30;96.40;;;;;;5109687;27;20180;-52
2021/03/28 05:45:25;;;;;;;3.42;1.92;;;5.40;96.50;;;;;;5097115;27;20214;-52
2021/03/28 05:48:31;;;;;;;8.43;1.95;;;5.60;96.80;;;;;;5105963;28;20178;-51
2021/03/28 05:51:15;;;;;;;4.85;2.05;;;5.80;96.60;;;;;;5099517;27;20539;-51
2021/03/28 05:53:59;;;;;;;4.10;1.92;;;5.60;96.00;;;;;;5102068;27;20287;-53
2021/03/28 05:57:03;;;;;;;5.05;2.38;;;5.90;96.00;;;;;;5102926;27;20177;-53
2021/03/28 06:00:11;;;;;;;3.92;2.13;;;5.80;95.90;;;;;;5105297;28;20199;-52
2021/03/28 06:02:59;;;;;;;3.17;1.58;;;5.60;95.40;;;;;;5064714;27;20187;-53
2021/03/28 06:05:56;;;;;;;3.35;1.90;;;6.00;95.50;;;;;;5065953;27;20644;-52
2021/03/28 06:08:47;;;;;;;2.70;1.58;;;6.10;95.60;;;;;;5110571;27;20209;-52
2021/03/28 06:11:30;;;;;;;4.93;2.53;;;6.10;95.40;;;;;;5107742;27;20189;-53
2021/03/28 06:14:51;;;;;;;7.43;2.20;;;5.80;95.50;;;;;;5100871;27;20304;-52
2021/03/28 06:17:23;;;;;;;5.85;2.55;;;5.90;95.50;;;;;;5028288;28;20200;-53
2021/03/28 06:20:00;;;;;;;4.50;2.13;;;6.00;95.30;;;;;;5095155;27;20238;-53
2021/03/28 06:22:29;;;;;;;2.25;1.85;;;6.00;95.20;;;;;;5099007;28;20187;-53
2021/03/28 06:24:57;;;;;;;6.25;2.20;;;6.20;95.30;;;;;;5093253;28;20211;-53
2021/03/28 06:27:55;;;;;;;2.30;1.80;;;6.10;95.20;;;;;;5102069;27;20171;-53
2021/03/28 06:30:52;;;;;;;3.47;2.00;;;6.20;94.90;;;;;;5100330;27;20177;-53
2021/03/28 06:33:36;;;;;;;3.30;2.17;;;6.30;94.50;;;;;;5115965;27;20928;-51
2021/03/28 06:36:36;;;;;;;2.55;1.85;;;6.40;94.60;;;;;;5097471;27;20182;-53
2021/03/28 06:39:37;;;;;;;2.17;1.70;;;6.60;94.30;;;;;;5107323;27;20206;-52
2021/03/28 06:42:36;;;;;;;3.17;1.70;;;6.80;93.60;;;;;;5099848;27;20186;-53
2021/03/28 06:45:20;;;;;;;8.38;2.22;;;7.00;93.00;;;;;;5099820;28;20215;-54
2021/03/28 06:47:58;;;;;;;3.70;2.22;;;7.50;92.90;;;;;;5105768;27;20263;-54
2021/03/28 06:50:46;;;;;;;4.88;2.60;;;7.80;92.50;;;;;;5106241;28;20672;-53
2021/03/28 06:53:31;;;;;;;3.63;2.10;;;8.10;91.60;;;;;;5102587;28;20283;-54
2021/03/28 06:57:01;;;;;;;2.75;2.30;;;8.50;90.70;;;;;;5104690;28;20195;-54
2021/03/28 06:59:52;;;;;;;7.60;3.38;;;9.00;90.10;;;;;;5041910;28;20224;-54
2021/03/28 07:02:32;;;;;;;3.05;2.38;;;10.00;85.30;;;;;;5098210;28;20196;-51
2021/03/28 07:05:20;;;;;;;3.67;2.13;;;10.60;81.80;;;;;;5097047;28;20194;-54
2021/03/28 07:08:23;;;;;;;4.88;2.03;;;11.00;79.20;;;;;;5106781;27;20212;-51
2021/03/28 07:11:31;;;;;;;3.72;1.70;;;11.30;78.80;;;;;;5110769;27;20270;-49
2021/03/28 07:14:34;;;;;;;6.03;2.30;;;12.40;76.00;;;;;;5109933;27;20186;-52
2021/03/28 07:17:12;;;;;;;4.00;2.10;;;13.00;71.30;;;;;;5114735;27;20209;-52
2021/03/28 07:19:53;;;;;;;3.42;1.70;;;12.90;72.40;;;;;;5100230;27;20198;-51
2021/03/28 07:22:32;;;;;;;2.70;1.70;;;13.40;70.90;;;;;;5108973;27;20216;-50
2021/03/28 07:24:58;;;;;;;2.42;1.77;;;13.50;69.90;;;;;;5100791;27;20249;-51
2021/03/28 07:27:30;;;;;;;3.63;2.00;;;13.40;69.00;;;;;;5099189;27;20649;-49
2021/03/28 07:30:20;;;;;;;5.60;1.88;;;13.10;68.40;;;;;;5110125;27;20204;-49
2021/03/28 07:33:19;;;;;;;3.85;2.30;;;12.80;68.30;;;;;;5099478;27;20191;-50
2021/03/28 07:35:56;;;;;;;3.65;2.25;;;13.90;70.00;;;;;;5103506;27;20640;-50
2021/03/28 07:38:59;;;;;;;3.78;1.83;;;14.10;66.70;;;;;;5097254;27;20199;-52
2021/03/28 07:41:44;;;;;;;4.30;2.20;;;13.70;65.80;;;;;;5111683;27;20239;-52
2021/03/28 07:44:47;;;;;;;5.10;2.28;;;13.70;64.30;;;;;;5109929;27;20190;-51
2021/03/28 07:47:18;;;;;;;3.65;1.55;;;14.40;63.50;;;;;;5097167;27;20233;-54
2021/03/28 07:50:10;;;;;;;2.35;1.90;;;15.00;60.60;;;;;;5110406;27;20230;-55
2021/03/28 07:53:15;;;;;;;4.20;1.98;;;15.70;59.10;;;;;;5094717;28;20241;-50
2021/03/28 07:56:08;;;;;;;3.47;2.30;;;16.60;57.20;;;;;;5105329;27;20273;-52
2021/03/28 07:58:41;;;;;;;2.55;2.20;;;17.10;56.50;;;;;;5118526;27;20199;-52
2021/03/28 08:01:36;;;;;;;4.38;2.00;;;17.30;55.50;;;;;;5101926;27;20186;-50
2021/03/28 08:04:19;;;;;;;3.85;2.00;;;17.50;54.80;;;;;;5106801;27;20187;-51
2021/03/28 08:07:06;;;;;;;3.45;2.00;;;17.30;54.50;;;;;;5106729;27;20226;-55
2021/03/28 08:09:53;;;;;;;3.08;2.40;;;17.30;54.90;;;;;;5103752;27;20192;-52
2021/03/28 08:13:13;;;;;;;2.78;1.88;;;16.70;55.60;;;;;;5105503;27;20186;-52
2021/03/28 08:15:45;;;;;;;4.32;2.05;;;16.40;55.80;;;;;;5112451;27;20386;-51
2021/03/28 08:18:13;;;;;;;2.38;1.58;;;16.00;56.80;;;;;;5105028;27;20198;-51
2021/03/28 08:21:01;;;;;;;4.63;2.40;;;15.70;56.70;;;;;;5106668;27;20553;-52
2021/03/28 08:23:39;;;;;;;3.60;1.92;;;15.70;58.10;;;;;;5104492;28;20734;-52
2021/03/28 08:26:25;;;;;;;2.85;1.80;;;15.60;58.20;;;;;;5105061;27;20617;-50
2021/03/28 08:29:24;;;;;;;2.20;1.55;;;15.40;58.20;;;;;;5111468;27;20207;-50
2021/03/28 08:32:09;;;;;;;2.58;1.80;;;15.30;59.00;;;;;;5097492;27;20695;-52
2021/03/28 08:35:02;;;;;;;4.20;1.98;;;15.20;59.20;;;;;;5104341;27;20670;-52
2021/03/28 08:37:34;;;;;;;3.45;2.00;;;15.20;59.30;;;;;;5107992;27;20190;-52
2021/03/28 08:40:21;;;;;;;4.00;1.83;;;15.70;59.10;;;;;;5111936;27;20203;-52
2021/03/28 08:43:14;;;;;;;4.85;2.00;;;15.30;58.40;;;;;;5126624;27;20602;-52
2021/03/28 08:46:04;;;;;;;3.50;1.88;;;16.00;57.70;;;;;;5105775;27;20293;-51
2021/03/28 08:49:08;;;;;;;4.63;1.63;;;15.90;56.90;;;;;;5110087;27;20199;-52
2021/03/28 08:52:16;;;;;;;5.22;1.85;;;16.50;57.20;;;;;;5122829;27;20205;-52
2021/03/28 08:55:05;;;;;;;5.25;1.75;;;17.60;55.00;;;;;;5094899;27;20235;-52
2021/03/28 08:57:37;;;;;;;3.58;1.60;;;18.10;53.10;;;;;;5116576;27;20644;-52
2021/03/28 09:00:41;;;;;;;4.57;1.90;;;17.70;52.50;;;;;;5096650;27;20186;-52
2021/03/28 09:03:40;;;;;;;3.70;1.77;;;17.20;53.30;;;;;;5010090;28;20422;-52
2021/03/28 09:06:13;;;;;;;2.90;1.65;;;16.90;54.00;;;;;;5007938;28;20743;-52
2021/03/28 09:08:59;;;;;;;3.08;1.80;;;16.40;54.60;;;;;;5079473;28;20211;-52
2021/03/28 09:11:54;;;;;;;4.82;2.15;;;16.70;54.50;;;;;;5127923;27;20181;-52
2021/03/28 09:14:28;;;;;;;2.55;1.58;;;16.50;55.00;;;;;;5120276;27;20674;-52
2021/03/28 09:16:59;;;;;;;6.05;1.83;;;16.20;54.20;;;;;;5103193;27;20199;-52
2021/03/28 09:19:43;;;;;;;2.85;1.42;;;16.40;54.20;;;;;;5100580;27;20202;-51
2021/03/28 09:22:38;;;;;;;2.00;1.40;;;16.10;54.00;;;;;;5103790;27;20183;-51
2021/03/28 09:25:09;;;;;;;4.50;1.70;;;15.90;52.90;;;;;;5092381;28;20321;-52
2021/03/28 09:27:59;;;;;;;3.33;1.40;;;16.00;53.50;;;;;;5123399;27;21055;-51
2021/03/28 09:30:44;;;;;;;2.90;1.50;;;15.80;53.90;;;;;;5103666;27;20179;-51
2021/03/28 09:33:36;;;;;;;3.25;1.45;;;15.80;53.30;;;;;;5103368;27;20211;-52
2021/03/28 09:36:11;;;;;;;7.18;1.80;;;15.30;53.20;;;;;;5097827;28;20278;-51
2021/03/28 09:39:09;;;;;;;1.90;1.55;;;15.80;53.10;;;;;;5098815;27;20229;-53
2021/03/28 09:41:34;;;;;;;4.28;1.77;;;15.90;52.00;;;;;;5106607;27;20174;-51
2021/03/28 09:44:25;;;;;;;2.20;1.47;;;17.10;50.20;;;;;;5104538;27;21083;-51
2021/03/28 09:47:03;;;;;;;4.57;2.50;;;17.20;50.10;;;;;;5103987;27;20178;-52
2021/03/28 09:49:41;;;;;;;2.70;1.50;;;17.40;49.00;;;;;;5101277;27;20206;-53
2021/03/28 09:52:22;;;;;;;2.85;1.90;;;18.90;47.70;;;;;;5106991;27;20179;-53
2021/03/28 09:55:22;;;;;;;2.00;1.50;;;19.70;45.10;;;;;;5108824;27;20182;-54
2021/03/28 09:58:24;;;;;;;3.30;1.70;;;20.50;44.20;;;;;;5106177;27;20858;-54
2021/03/28 10:01:17;;;;;;;2.60;1.70;;;21.20;43.40;;;;;;5102095;27;20475;-54
2021/03/28 10:04:01;;;;;;;2.70;1.40;;;20.80;42.30;;;;;;5102682;27;20439;-54
2021/03/28 10:06:29;;;;;;;1.90;1.40;;;21.30;40.90;;;;;;5103086;27;20443;-53
2021/03/28 10:09:20;;;;;;;3.40;1.73;;;21.50;41.20;;;;;;5110283;27;20527;-53
2021/03/28 10:11:51;;;;;;;3.30;2.00;;;20.80;41.80;;;;;;5111040;27;20425;-52
2021/03/28 10:14:38;;;;;;;3.55;1.75;;;20.30;41.30;;;;;;5099803;28;20441;-53
2021/03/28 10:17:07;;;;;;;2.55;1.58;;;20.40;41.10;;;;;;5094981;27;20273;-53
2021/03/28 10:19:45;;;;;;;2.70;1.45;;;19.70;40.70;;;;;;5104663;27;20507;-52
2021/03/28 10:22:20;;;;;;;3.25;1.90;;;19.70;41.30;;;;;;5106961;27;20281;-53
2021/03/28 10:25:07;;;;;;;2.17;1.70;;;19.50;42.50;;;;;;5099995;27;20210;-53
2021/03/28 10:28:14;;;;;;;4.40;1.60;;;19.20;41.90;;;;;;5124133;27;20178;-52
2021/03/28 10:30:43;;;;;;;2.97;1.40;;;18.70;42.10;;;;;;5099997;28;20723;-53
2021/03/28 10:33:14;;;;;;;2.58;1.30;;;18.50;43.00;;;;;;5101720;27;20279;-53
2021/03/28 10:36:04;;;;;;;3.90;1.65;;;18.70;43.00;;;;;;5101505;27;20187;-53
2021/03/28 10:38:42;;;;;;;1.88;1.30;;;18.50;43.00;;;;;;5097433;27;20202;-52
2021/03/28 10:41:35;;;;;;;4.55;1.60;;;18.10;43.10;;;;;;5100771;27;20661;-53
2021/03/28 10:44:25;;;;;;;2.75;1.70;;;18.20;43.10;;;;;;5100556;27;20179;-53
2021/03/28 10:47:21;;;;;;;2.75;1.60;;;18.20;43.10;;;;;;5098958;28;20176;-53
2021/03/28 10:50:10;;;;;;;3.67;1.75;;;18.00;43.70;;;;;;5100552;28;20199;-53
2021/03/28 10:53:18;;;;;;;2.58;1.50;;;18.10;43.20;;;;;;5110886;27;20286;-53
2021/03/28 10:56:02;;;;;;;4.03;1.50;;;17.80;44.20;;;;;;5100385;28;20187;-53
2021/03/28 10:59:05;;;;;;;1.98;1.70;;;17.50;44.60;;;;;;5104521;27;20203;-52
2021/03/28 11:02:09;;;;;;;2.20;1.80;;;17.70;44.70;;;;;;5097430;28;20651;-52
2021/03/28 11:04:46;;;;;;;3.67;1.55;;;18.00;44.00;;;;;;5101764;28;20571;-54
2021/03/28 11:07:39;;;;;;;2.83;1.70;;;18.30;43.00;;;;;;5099794;28;20575;-53
2021/03/28 11:10:19;;;;;;;2.47;1.70;;;18.80;42.40;;;;;;5112060;28;20239;-53
2021/03/28 11:13:20;;;;;;;2.60;1.40;;;19.50;41.60;;;;;;5120459;28;20588;-53
2021/03/28 11:16:14;;;;;;;2.47;1.45;;;19.40;41.50;;;;;;5105231;28;20511;-53
2021/03/28 11:19:01;;;;;;;2.67;1.48;;;19.30;41.60;;;;;;5095146;28;20239;-52
2021/03/28 11:21:47;;;;;;;5.00;1.92;;;19.00;41.60;;;;;;5096291;28;20210;-52
2021/03/28 11:24:34;;;;;;;3.72;2.22;;;18.30;42.50;;;;;;5112232;27;20195;-52
2021/03/28 11:27:22;;;;;;;4.53;1.80;;;18.40;42.80;;;;;;5090551;28;20465;-53
2021/03/28 11:30:08;;;;;;;3.67;1.65;;;18.40;42.40;;;;;;5108003;28;20254;-53
2021/03/28 11:32:49;;;;;;;2.40;1.75;;;18.10;43.10;;;;;;5103910;28;20309;-53
2021/03/28 11:35:25;;;;;;;1.85;1.40;;;18.30;42.90;;;;;;5099232;28;20214;-52
2021/03/28 11:37:52;;;;;;;1.90;1.60;;;18.30;43.40;;;;;;5101155;28;20179;-52
2021/03/28 11:40:31;;;;;;;3.83;1.48;;;18.40;42.90;;;;;;5104238;27;20228;-52
2021/03/28 11:43:03;;;;;;;2.97;1.90;;;17.80;43.80;;;;;;5118758;28;20189;-53
2021/03/28 11:45:37;;;;;;;2.85;1.63;;;18.10;44.10;;;;;;5090702;28;20336;-53
2021/03/28 11:48:26;;;;;;;3.25;1.65;;;18.30;44.10;;;;;;5092835;28;20201;-53
2021/03/28 11:50:56;;;;;;;5.05;1.85;;;18.20;43.90;;;;;;5082998;28;20226;-53
2021/03/28 11:53:25;;;;;;;4.63;1.70;;;17.90;43.70;;;;;;5099148;27;20182;-53
2021/03/28 11:55:58;;;;;;;3.90;1.63;;;17.80;44.70;;;;;;5111032;27;20647;-52
2021/03/28 11:58:30;;;;;;;2.50;1.60;;;18.00;44.50;;;;;;5109425;27;20321;-52
2021/03/28 12:00:57;;;;;;;5.00;1.73;;;18.70;44.20;;;;;;5107386;27;20190;-53
2021/03/28 12:03:26;;;;;;;3.58;2.55;;;18.90;43.40;;;;;;5093739;28;20191;-52
2021/03/28 12:06:02;;;;;;;2.22;2.00;;;18.90;42.30;;;;;;5093519;28;20227;-53
2021/03/28 12:08:51;;;;;;;3.55;2.00;;;18.90;42.30;;;;;;5103485;27;20504;-53
2021/03/28 12:11:39;;;;;;;2.22;1.70;;;18.60;42.80;;;;;;5103969;27;20191;-53
2021/03/28 12:14:17;;;;;;;4.30;2.92;;;18.50;42.50;;;;;;5103749;28;20190;-52
2021/03/28 12:17:11;;;;;;;3.10;2.05;;;18.40;42.80;;;;;;5096886;27;20651;-53
2021/03/28 12:20:01;;;;;;;2.88;1.75;;;18.40;43.50;;;;;;5093326;28;20711;-53
2021/03/28 12:22:41;;;;;;;3.00;1.83;;;18.20;43.60;;;;;;5097955;27;20190;-53
2021/03/28 12:25:13;;;;;;;2.22;1.80;;;17.80;43.60;;;;;;5104662;27;20207;-53
2021/03/28 12:27:42;;;;;;;3.00;1.70;;;18.10;44.50;;;;;;5096872;27;20232;-52
2021/03/28 12:30:41;;;;;;;3.63;1.60;;;17.90;43.90;;;;;;5098038;28;20176;-52
2021/03/28 12:33:19;;;;;;;3.47;2.50;;;17.90;44.20;;;;;;5101248;27;20209;-52
2021/03/28 12:35:47;;;;;;;4.32;1.90;;;17.90;43.90;;;;;;5103546;27;20568;-52
2021/03/28 12:38:28;;;;;;;2.78;1.88;;;18.20;44.80;;;;;;5132063;27;20211;-52
2021/03/28 12:41:12;;;;;;;3.83;2.00;;;18.10;43.90;;;;;;5103734;27;20179;-53
2021/03/28 12:43:45;;;;;;;3.72;1.95;;;18.10;43.80;;;;;;5102436;27;20197;-52
2021/03/28 12:46:26;;;;;;;2.60;1.75;;;17.90;43.80;;;;;;5113068;27;20270;-52
2021/03/28 12:49:07;;;;;;;3.95;1.98;;;18.00;44.10;;;;;;5099237;28;20226;-52
2021/03/28 12:51:35;;;;;;;4.93;2.20;;;17.80;43.90;;;;;;5120002;27;20180;-52
2021/03/28 12:54:01;;;;;;;2.53;2.15;;;18.00;44.50;;;;;;5106732;27;20270;-52
2021/03/28 12:56:31;;;;;;;3.37;1.80;;;17.70;44.20;;;;;;5104657;27;20219;-52
2021/03/28 12:58:57;;;;;;;2.17;1.38;;;17.80;44.20;;;;;;5108683;27;20448;-53
2021/03/28 13:01:29;;;;;;;6.50;2.53;;;18.00;44.70;;;;;;5103655;27;20544;-52
2021/03/28 13:04:16;;;;;;;4.20;1.80;;;18.00;44.50;;;;;;5111163;27;20443;-52
2021/03/28 13:06:49;;;;;;;2.22;1.50;;;17.40;43.90;;;;;;5118311;27;20183;-52
2021/03/28 13:09:15;;;;;;;3.65;1.95;;;17.70;45.60;;;;;;5102565;28;20192;-52
2021/03/28 13:12:11;;;;;;;2.50;1.60;;;17.30;44.40;;;;;;5110420;27;20476;-52
2021/03/28 13:14:39;;;;;;;3.08;2.00;;;17.70;44.40;;;;;;5111223;27;20197;-51
2021/03/28 13:17:14;;;;;;;3.25;1.75;;;17.50;46.00;;;;;;5098044;28;20237;-52
2021/03/28 13:19:46;;;;;;;2.65;1.60;;;17.70;45.40;;;;;;5117809;27;20194;-52
2021/03/28 13:22:49;;;;;;;3.33;2.05;;;17.60;45.30;;;;;;5104567;27;20274;-52
2021/03/28 13:25:18;;;;;;;3.10;2.42;;;17.90;45.40;;;;;;5118655;27;20767;-52
2021/03/28 13:27:46;;;;;;;11.13;7.72;;;17.80;44.80;;;;;;5109487;27;20294;-52
2021/03/28 13:30:25;;;;;;;3.40;2.00;;;17.70;44.90;;;;;;5100315;28;20224;-52
2021/03/28 13:32:52;;;;;;;4.75;1.75;;;17.90;45.00;;;;;;5110456;27;20183;-51
2021/03/28 13:35:32;;;;;;;2.45;1.60;;;18.10;45.70;;;;;;5097527;27;20268;-52
2021/03/28 13:38:12;;;;;;;2.22;1.90;;;18.00;45.50;;;;;;5103262;27;20206;-52
2021/03/28 13:40:50;;;;;;;4.45;3.08;;;17.90;44.60;;;;;;5107835;27;20202;-51
2021/03/28 13:43:25;;;;;;;3.30;1.77;;;17.70;45.60;;;;;;5098507;27;20193;-52
2021/03/28 13:45:53;;;;;;;2.95;1.65;;;17.90;45.50;;;;;;5100515;27;20260;-52
2021/03/28 13:48:19;;;;;;;3.00;1.92;;;17.90;44.40;;;;;;5124142;27;20747;-52
2021/03/28 13:51:20;;;;;;;4.90;2.00;;;18.00;45.50;;;;;;5109633;27;20196;-52
2021/03/28 13:54:05;;;;;;;3.15;1.75;;;17.70;44.50;;;;;;5101468;27;20180;-52
2021/03/28 13:56:34;;;;;;;2.40;1.70;;;17.80;44.30;;;;;;5104551;28;20274;-52
2021/03/28 13:59:11;;;;;;;3.92;2.03;;;17.90;44.40;;;;;;5103067;27;20366;-52
2021/03/28 14:01:40;;;;;;;2.72;1.65;;;17.90;44.80;;;;;;5096592;27;20194;-53
2021/03/28 14:04:31;;;;;;;4.47;1.77;;;18.00;44.10;;;;;;5119529;27;20352;-51
2021/03/28 14:07:12;;;;;;;2.42;1.40;;;17.90;43.70;;;;;;5103405;27;20184;-51
2021/03/28 14:09:42;;;;;;;3.78;2.00;;;17.90;43.90;;;;;;5106561;27;20580;-51
2021/03/28 14:12:34;;;;;;;3.53;1.83;;;17.90;44.30;;;;;;5102955;27;20175;-53
2021/03/28 14:15:33;;;;;;;8.27;2.40;;;18.00;44.50;;;;;;5124766;27;20632;-52
2021/03/28 14:18:12;;;;;;;2.00;1.65;;;17.90;44.60;;;;;;5099514;27;20336;-52
2021/03/28 14:20:42;;;;;;;5.22;1.83;;;18.20;44.60;;;;;;5097721;27;20183;-52
2021/03/28 14:23:11;;;;;;;2.80;1.70;;;18.10;44.30;;;;;;5102903;27;20327;-52